createdAt,value
2023-05-07T00:00:34.957Z,100170.91
2023-05-07T00:03:02.495Z,100163.09
2023-05-07T00:05:30.174Z,100165.75
2023-05-07T00:07:59.496Z,100161.28
2023-05-07T00:10:27.563Z,100158.69
2023-05-07T00:12:55.467Z,100166.72
2023-05-07T00:15:22.932Z,100181.81
2023-05-07T00:17:50.437Z,100184.53
2023-05-07T00:20:17.504Z,100187.28
2023-05-07T00:22:44.871Z,100188.16
2023-05-07T00:25:12.294Z,100202.53
2023-05-07T00:27:39.740Z,100202.66
2023-05-07T00:30:08.340Z,100197.31
2023-05-07T00:32:35.667Z,100197.38
2023-05-07T00:35:03.267Z,100206.19
2023-05-07T00:37:31.167Z,100204.47
2023-05-07T00:39:58.619Z,100209.69
2023-05-07T00:42:25.967Z,100208.00
2023-05-07T00:44:53.356Z,100216.00
2023-05-07T00:47:20.796Z,100213.44
2023-05-07T00:49:48.241Z,100209.09
2023-05-07T00:52:18.712Z,100208.25
2023-05-07T00:54:46.391Z,100207.41
2023-05-07T00:57:13.405Z,100216.31
2023-05-07T00:59:41.746Z,100219.84
2023-05-07T01:02:09.230Z,100219.09
2023-05-07T01:04:36.948Z,100224.47
2023-05-07T01:07:06.462Z,100226.25
2023-05-07T01:09:33.896Z,100229.00
2023-05-07T01:12:01.302Z,100237.00
2023-05-07T01:14:28.981Z,100234.50
2023-05-07T01:16:56.467Z,100241.56
2023-05-07T01:19:24.024Z,100250.50
2023-05-07T01:21:55.683Z,100244.25
2023-05-07T01:24:23.215Z,100246.91
2023-05-07T01:26:50.580Z,100240.75
2023-05-07T01:29:18.004Z,100238.03
2023-05-07T01:31:45.706Z,100244.25
2023-05-07T01:34:14.388Z,100251.38
2023-05-07T01:36:41.997Z,100254.09
2023-05-07T01:39:10.782Z,100261.22
2023-05-07T01:41:38.177Z,100264.81
2023-05-07T01:44:05.880Z,100267.47
2023-05-07T01:46:33.699Z,100279.94
2023-05-07T01:49:01.324Z,100285.22
2023-05-07T01:51:28.912Z,100282.63
2023-05-07T01:53:56.485Z,100281.75
2023-05-07T01:56:24.205Z,100294.16
2023-05-07T01:58:52.331Z,100287.09
2023-05-07T02:01:19.835Z,100299.47
2023-05-07T02:03:47.473Z,100301.22
2023-05-07T02:06:14.972Z,100303.03
2023-05-07T02:08:42.398Z,100310.13
2023-05-07T02:11:09.791Z,100321.66
2023-05-07T02:13:37.352Z,100318.19
2023-05-07T02:16:05.109Z,100321.69
2023-05-07T02:18:32.977Z,100328.84
2023-05-07T02:21:00.385Z,100332.41
2023-05-07T02:23:27.775Z,100333.28
2023-05-07T02:25:55.093Z,100343.03
2023-05-07T02:28:25.297Z,100349.28
2023-05-07T02:30:52.797Z,100346.59
2023-05-07T02:33:20.360Z,100352.81
2023-05-07T02:35:47.733Z,100350.16
2023-05-07T02:38:15.036Z,100350.16
2023-05-07T02:40:42.646Z,100344.88
2023-05-07T02:43:10.108Z,100355.50
2023-05-07T02:45:38.714Z,100354.66
2023-05-07T02:48:09.373Z,100363.53
2023-05-07T02:50:36.857Z,100369.75
2023-05-07T02:53:04.685Z,100369.75
2023-05-07T02:55:32.402Z,100372.44
2023-05-07T02:57:59.825Z,100368.91
2023-05-07T03:00:27.311Z,100378.66
2023-05-07T03:02:54.303Z,100382.19
2023-05-07T03:05:21.763Z,100371.56
2023-05-07T03:07:49.182Z,100371.56
2023-05-07T03:10:16.790Z,100380.44
2023-05-07T03:12:44.283Z,100382.22
2023-05-07T03:15:13.794Z,100380.44
2023-05-07T03:17:41.473Z,100381.34
2023-05-07T03:20:11.015Z,100377.81
2023-05-07T03:22:38.814Z,100382.25
2023-05-07T03:25:06.888Z,100390.22
2023-05-07T03:27:34.296Z,100392.00
2023-05-07T03:30:01.860Z,100394.66
2023-05-07T03:32:29.421Z,100394.69
2023-05-07T03:34:56.980Z,100387.59
2023-05-07T03:37:24.425Z,100390.25
2023-05-07T03:39:51.777Z,100392.03
2023-05-07T03:42:19.167Z,100391.19
2023-05-07T03:44:46.519Z,100399.16
2023-05-07T03:47:14.438Z,100400.91
2023-05-07T03:49:42.031Z,100412.44
2023-05-07T03:52:09.378Z,100408.88
2023-05-07T03:54:36.778Z,100407.13
2023-05-07T03:57:04.128Z,100416.88
2023-05-07T03:59:31.575Z,100422.19
2023-05-07T04:01:59.101Z,100422.19
2023-05-07T04:04:26.575Z,100425.72
2023-05-07T04:06:54.116Z,100424.84
2023-05-07T04:09:21.472Z,100430.16
2023-05-07T04:11:48.861Z,100441.69
2023-05-07T04:14:16.284Z,100444.38
2023-05-07T04:16:43.729Z,100450.56
2023-05-07T04:19:11.099Z,100451.44
2023-05-07T04:21:38.479Z,100463.84
2023-05-07T04:24:06.206Z,100465.63
2023-05-07T04:26:33.890Z,100474.47
2023-05-07T04:29:01.583Z,100477.13
2023-05-07T04:31:28.999Z,100481.56
2023-05-07T04:33:56.600Z,100486.00
2023-05-07T04:36:24.092Z,100478.91
2023-05-07T04:38:51.498Z,100489.53
2023-05-07T04:41:18.809Z,100491.28
2023-05-07T04:43:46.700Z,100502.78
2023-05-07T04:46:14.171Z,100509.88
2023-05-07T04:48:41.775Z,100502.78
2023-05-07T04:51:09.138Z,100501.00
2023-05-07T04:53:36.613Z,100514.28
2023-05-07T04:56:04.087Z,100503.63
2023-05-07T04:58:32.983Z,100515.13
2023-05-07T05:01:01.623Z,100511.59
2023-05-07T05:03:29.265Z,100530.19
2023-05-07T05:05:58.122Z,100523.09
2023-05-07T05:08:25.645Z,100528.38
2023-05-07T05:10:52.979Z,100528.38
2023-05-07T05:13:20.461Z,100523.94
2023-05-07T05:15:47.866Z,100516.84
2023-05-07T05:18:15.461Z,100522.13
2023-05-07T05:20:42.844Z,100511.47
2023-05-07T05:23:10.300Z,100510.53
2023-05-07T05:25:38.452Z,100509.63
2023-05-07T05:28:08.298Z,100512.25
2023-05-07T05:30:36.224Z,100511.38
2023-05-07T05:33:03.741Z,100509.59
2023-05-07T05:35:31.916Z,100509.56
2023-05-07T05:37:59.334Z,100514.00
2023-05-07T05:40:27.063Z,100504.22
2023-05-07T05:42:54.562Z,100497.09
2023-05-07T05:45:22.159Z,100493.50
2023-05-07T05:47:49.609Z,100495.25
2023-05-07T05:50:17.032Z,100500.53
2023-05-07T05:52:44.411Z,100501.34
2023-05-07T05:55:11.373Z,100504.00
2023-05-07T05:57:38.401Z,100503.06
2023-05-07T06:00:06.356Z,100492.41
2023-05-07T06:02:33.894Z,100489.63
2023-05-07T06:05:01.436Z,100486.88
2023-05-07T06:08:34.698Z,100507.22
2023-05-07T06:11:06.949Z,100520.41
2023-05-07T06:13:34.385Z,100514.13
2023-05-07T06:16:01.741Z,100515.84
2023-05-07T06:18:29.099Z,100510.53
2023-05-07T06:20:56.464Z,100502.50
2023-05-07T06:23:23.871Z,100505.88
2023-05-07T06:25:51.609Z,100502.16
2023-05-07T06:28:19.074Z,100498.38
2023-05-07T06:30:46.599Z,100489.34
2023-05-07T06:33:13.964Z,100482.13
2023-05-07T06:35:41.399Z,100451.94
2023-05-07T06:38:08.837Z,100441.91
2023-05-07T06:40:36.260Z,100437.28
2023-05-07T06:43:03.625Z,100423.84
2023-05-07T06:45:31.155Z,100435.22
2023-05-07T06:47:58.552Z,100423.63
2023-05-07T06:50:26.049Z,100405.91
2023-05-07T06:52:53.447Z,100389.06
2023-05-07T06:55:21.020Z,100380.19
2023-05-07T06:57:48.550Z,100391.53
2023-05-07T07:00:16.561Z,100394.91
2023-05-07T07:02:44.921Z,100373.38
2023-05-07T07:05:12.395Z,100358.72
2023-05-07T07:07:39.809Z,100341.81
2023-05-07T07:10:07.909Z,100350.88
2023-05-07T07:12:35.380Z,100329.88
2023-05-07T07:15:03.691Z,100337.28
2023-05-07T07:17:31.298Z,100325.63
2023-05-07T07:19:58.387Z,100305.47
2023-05-07T07:22:26.046Z,100322.03
2023-05-07T07:24:53.068Z,100327.03
2023-05-07T07:27:20.695Z,100308.50
2023-05-07T07:29:48.071Z,100325.88
2023-05-07T07:32:15.738Z,100318.88
2023-05-07T07:34:44.531Z,100310.84
2023-05-07T07:37:12.168Z,100331.00
2023-05-07T07:39:39.701Z,100316.53
2023-05-07T07:42:07.043Z,100322.97
2023-05-07T07:44:34.398Z,100281.38
2023-05-07T07:47:02.028Z,100282.63
2023-05-07T07:49:29.567Z,100277.28
2023-05-07T07:51:57.775Z,100270.88
2023-05-07T07:54:25.196Z,100252.91
2023-05-07T07:56:53.010Z,100245.53
2023-05-07T07:59:21.295Z,100228.00
2023-05-07T08:01:52.335Z,100227.41
2023-05-07T08:04:22.004Z,100247.16
2023-05-07T08:06:52.920Z,100200.59
2023-05-07T08:09:20.266Z,100154.34
2023-05-07T08:11:47.718Z,100146.91
2023-05-07T08:14:16.818Z,100173.34
2023-05-07T08:16:44.454Z,100181.69
2023-05-07T08:19:11.981Z,100151.31
2023-05-07T08:21:45.905Z,100112.19
2023-05-07T08:24:13.998Z,100152.84
2023-05-07T08:26:43.766Z,100141.44
2023-05-07T08:29:12.193Z,100141.31
2023-05-07T08:31:40.865Z,100158.38
2023-05-07T08:34:10.579Z,100120.44
2023-05-07T08:36:38.271Z,100058.50
2023-05-07T08:39:06.661Z,100114.25
2023-05-07T08:41:34.450Z,100122.13
2023-05-07T08:44:05.645Z,100079.25
2023-05-07T08:46:37.207Z,100076.28
2023-05-07T08:49:05.007Z,100062.34
2023-05-07T08:51:32.901Z,100030.97
2023-05-07T08:54:03.312Z,100084.06
2023-05-07T08:56:31.109Z,100072.19
2023-05-07T08:59:05.047Z,100057.06
2023-05-07T09:01:32.983Z,100058.66
2023-05-07T09:04:02.179Z,100023.13
2023-05-07T09:06:29.917Z,99980.25
2023-05-07T09:08:57.561Z,100019.75
2023-05-07T09:11:26.002Z,99944.22
2023-05-07T09:13:58.888Z,99901.44
2023-05-07T09:16:27.486Z,99892.75
2023-05-07T09:18:56.233Z,99936.88
2023-05-07T09:21:24.245Z,99920.97
2023-05-07T09:23:56.503Z,99968.19
2023-05-07T09:26:25.324Z,99983.34
2023-05-07T09:28:56.224Z,99939.75
2023-05-07T09:31:24.861Z,99876.94
2023-05-07T09:33:53.567Z,99861.22
2023-05-07T09:36:21.066Z,99836.63
2023-05-07T09:38:48.785Z,99831.41
2023-05-07T09:41:16.323Z,99808.44
2023-05-07T09:43:43.834Z,99782.88
2023-05-07T09:46:16.437Z,99812.03
2023-05-07T09:48:45.527Z,99720.78
2023-05-07T09:51:40.608Z,99752.75
2023-05-07T09:54:08.520Z,99783.91
2023-05-07T09:56:36.294Z,99761.28
2023-05-07T09:59:04.900Z,99725.28
2023-05-07T10:01:33.200Z,99670.59
2023-05-07T10:04:04.625Z,99610.78
2023-05-07T10:06:32.154Z,99693.25
2023-05-07T10:08:59.757Z,99694.84
2023-05-07T10:11:27.439Z,99663.41
2023-05-07T10:13:54.975Z,99639.91
2023-05-07T10:16:25.987Z,99614.06
2023-05-07T10:18:53.649Z,99626.88
2023-05-07T10:21:25.137Z,99528.22
2023-05-07T10:24:01.471Z,99625.91
2023-05-07T10:26:31.368Z,99493.06
2023-05-07T10:29:50.335Z,99527.47
2023-05-07T10:32:38.659Z,99508.94
2023-05-07T10:35:18.389Z,99429.06
2023-05-07T10:37:46.560Z,99476.13
2023-05-07T10:40:14.296Z,99511.59
2023-05-07T10:43:02.311Z,99474.88
2023-05-07T10:45:30.422Z,99309.09
2023-05-07T10:48:29.441Z,99454.81
2023-05-07T10:51:21.562Z,99401.84
2023-05-07T10:53:51.382Z,99333.72
2023-05-07T10:56:18.657Z,99401.06
2023-05-07T10:58:46.212Z,99283.47
2023-05-07T11:01:15.507Z,99402.59
2023-05-07T11:04:19.286Z,99348.28
2023-05-07T11:07:13.500Z,99356.00
2023-05-07T11:09:59.480Z,99420.75
2023-05-07T11:12:41.961Z,99282.56
2023-05-07T11:15:19.092Z,99298.38
2023-05-07T11:17:58.225Z,99294.16
2023-05-07T11:20:47.072Z,99178.94
2023-05-07T11:23:36.382Z,99273.94
2023-05-07T11:26:08.377Z,99284.84
2023-05-07T11:28:40.989Z,99232.84
2023-05-07T11:31:09.132Z,99269.31
2023-05-07T11:33:39.900Z,99106.75
2023-05-07T11:36:09.744Z,99169.03
2023-05-07T11:38:38.290Z,99137.94
2023-05-07T11:41:06.409Z,99210.81
2023-05-07T11:43:34.137Z,99112.72
2023-05-07T11:46:13.256Z,99129.78
2023-05-07T11:48:40.804Z,99180.84
2023-05-07T11:51:13.602Z,98973.75
2023-05-07T11:53:43.061Z,99061.16
2023-05-07T11:56:16.449Z,99089.81
2023-05-07T11:58:45.631Z,99026.28
2023-05-07T12:01:14.697Z,98982.38
2023-05-07T12:03:44.072Z,98959.94
2023-05-07T12:06:12.896Z,98905.47
2023-05-07T12:08:42.121Z,98958.22
2023-05-07T12:11:14.184Z,98959.69
2023-05-07T12:13:42.555Z,98987.25
2023-05-07T12:16:10.199Z,98914.38
2023-05-07T12:18:38.380Z,98747.66
2023-05-07T12:21:07.661Z,98835.28
2023-05-07T12:23:38.643Z,98834.81
2023-05-07T12:26:07.561Z,98852.41
2023-05-07T12:28:40.303Z,98684.22
2023-05-07T12:31:08.657Z,98725.91
2023-05-07T12:33:37.095Z,98713.47
2023-05-07T12:36:09.390Z,98741.16
2023-05-07T12:38:38.741Z,98841.75
2023-05-07T12:41:08.385Z,98713.66
2023-05-07T12:43:36.022Z,98704.00
2023-05-07T12:46:06.922Z,98699.16
2023-05-07T12:48:34.468Z,98620.91
2023-05-07T12:51:03.220Z,98811.53
2023-05-07T12:53:32.377Z,98590.94
2023-05-07T12:56:00.912Z,98671.63
2023-05-07T12:58:35.583Z,98836.84
2023-05-07T13:01:10.666Z,98947.47
2023-05-07T13:03:41.391Z,98495.41
2023-05-07T13:06:11.262Z,98832.38
2023-05-07T13:08:46.161Z,98662.97
2023-05-07T13:11:14.106Z,98573.69
2023-05-07T13:13:42.583Z,98525.72
2023-05-07T13:16:12.292Z,98677.63
2023-05-07T13:18:41.243Z,98691.56
2023-05-07T13:21:08.908Z,98583.03
2023-05-07T13:23:36.469Z,98700.00
2023-05-07T13:26:08.528Z,98874.00
2023-05-07T13:28:43.034Z,98974.31
2023-05-07T13:31:10.557Z,99045.56
2023-05-07T13:33:37.954Z,99113.69
2023-05-07T13:36:09.859Z,99197.72
2023-05-07T13:38:37.250Z,99270.78
2023-05-07T13:41:04.606Z,99316.63
2023-05-07T13:43:32.998Z,99411.19
2023-05-07T13:46:01.020Z,99429.16
2023-05-07T13:48:29.517Z,99493.88
2023-05-07T13:50:56.509Z,99567.53
2023-05-07T13:53:24.264Z,99602.34
2023-05-07T13:55:51.586Z,99657.06
2023-05-07T13:58:19.100Z,99703.31
2023-05-07T14:00:46.535Z,99763.84
2023-05-07T14:03:13.962Z,99799.25
2023-05-07T14:05:41.747Z,99830.75
2023-05-07T14:08:09.208Z,99805.31
2023-05-07T14:10:36.698Z,99851.75
2023-05-07T14:13:04.131Z,99821.06
2023-05-07T14:15:33.368Z,99811.16
2023-05-07T14:18:01.279Z,99855.53
2023-05-07T14:20:28.734Z,99857.13
2023-05-07T14:22:57.737Z,99896.34
2023-05-07T14:25:25.717Z,99920.47
2023-05-07T14:27:53.033Z,99974.53
2023-05-07T14:30:20.687Z,100007.97
2023-05-07T14:32:48.004Z,100053.13
2023-05-07T14:35:15.560Z,100091.78
2023-05-07T14:37:43.090Z,100080.09
2023-05-07T14:40:11.388Z,100081.47
2023-05-07T14:42:38.936Z,100104.22
2023-05-07T14:45:06.907Z,100147.84
2023-05-07T14:47:34.285Z,100169.13
2023-05-07T14:50:02.331Z,100201.97
2023-05-07T14:52:29.917Z,100242.72
2023-05-07T14:54:57.427Z,100257.09
2023-05-07T14:57:25.517Z,100282.09
2023-05-07T14:59:53.258Z,100309.31
2023-05-07T15:02:21.757Z,100335.53
2023-05-07T15:04:49.812Z,100356.19
2023-05-07T15:07:17.499Z,100379.56
2023-05-07T15:09:45.845Z,100406.47
2023-05-07T15:12:14.336Z,100434.38
2023-05-07T15:14:42.391Z,100471.13
2023-05-07T15:17:09.936Z,100495.22
2023-05-07T15:19:39.901Z,100507.75
2023-05-07T15:22:07.522Z,100521.22
2023-05-07T15:24:35.015Z,100538.25
2023-05-07T15:27:04.208Z,100557.97
2023-05-07T15:29:31.746Z,100576.63
2023-05-07T15:31:59.412Z,100591.97
2023-05-07T15:34:27.029Z,100603.50
2023-05-07T15:36:54.603Z,100630.00
2023-05-07T15:39:24.803Z,100650.53
2023-05-07T15:41:52.799Z,100652.53
2023-05-07T15:44:20.467Z,100672.06
2023-05-07T15:46:48.049Z,100650.94
2023-05-07T15:49:15.743Z,100676.78
2023-05-07T15:51:43.369Z,100690.00
2023-05-07T15:54:11.077Z,100705.03
2023-05-07T15:56:39.115Z,100713.91
2023-05-07T15:59:06.654Z,100715.50
2023-05-07T16:01:34.256Z,100713.66
2023-05-07T16:04:02.014Z,100711.94
2023-05-07T16:06:29.606Z,100686.19
2023-05-07T16:08:57.321Z,100683.56
2023-05-07T16:11:24.864Z,100696.16
2023-05-07T16:13:52.484Z,100705.06
2023-05-07T16:16:20.132Z,100706.75
2023-05-07T16:18:47.746Z,100694.31
2023-05-07T16:21:15.434Z,100710.34
2023-05-07T16:23:43.207Z,100700.41
2023-05-07T16:26:10.902Z,100726.34
2023-05-07T16:28:38.837Z,100736.19
2023-05-07T16:31:08.971Z,100720.28
2023-05-07T16:33:36.757Z,100738.00
2023-05-07T16:36:04.826Z,100725.63
2023-05-07T16:38:34.334Z,100730.03
2023-05-07T16:41:01.927Z,100737.16
2023-05-07T16:43:29.670Z,100754.06
2023-05-07T16:45:57.345Z,100770.00
2023-05-07T16:48:25.551Z,100791.50
2023-05-07T16:50:53.220Z,100780.78
2023-05-07T16:53:20.663Z,100789.69
2023-05-07T16:55:48.062Z,100786.94
2023-05-07T16:58:15.700Z,100793.28
2023-05-07T17:00:50.517Z,100804.81
2023-05-07T17:03:18.954Z,100811.13
2023-05-07T17:05:46.766Z,100822.56
2023-05-07T17:08:14.253Z,100821.75
2023-05-07T17:10:42.296Z,100828.84
2023-05-07T17:13:09.753Z,100831.53
2023-05-07T17:15:37.202Z,100836.97
2023-05-07T17:18:04.794Z,100851.19
2023-05-07T17:20:31.855Z,100869.94
2023-05-07T17:22:59.303Z,100878.84
2023-05-07T17:25:26.311Z,100900.19
2023-05-07T17:27:53.662Z,100914.41
2023-05-07T17:30:21.313Z,100923.28
2023-05-07T17:32:48.727Z,100934.91
2023-05-07T17:35:16.321Z,100949.13
2023-05-07T17:37:47.312Z,100957.13
2023-05-07T17:40:15.318Z,100974.09
2023-05-07T17:42:42.687Z,100990.13
2023-05-07T17:45:10.647Z,101002.59
2023-05-07T17:47:37.672Z,101020.38
2023-05-07T17:50:10.593Z,101017.69
2023-05-07T17:52:38.672Z,101044.31
2023-05-07T17:55:06.410Z,101045.16
2023-05-07T17:57:36.778Z,101051.44
2023-05-07T18:00:07.800Z,101054.16
2023-05-07T18:02:34.979Z,101057.66
2023-05-07T18:05:02.596Z,101064.84
2023-05-07T18:07:30.034Z,101064.88
2023-05-07T18:09:57.331Z,101074.63
2023-05-07T18:12:27.362Z,101071.06
2023-05-07T18:14:55.036Z,101081.78
2023-05-07T18:17:24.430Z,101094.22
2023-05-07T18:19:54.691Z,101103.16
2023-05-07T18:22:23.304Z,101115.59
2023-05-07T18:24:52.375Z,101122.72
2023-05-07T18:27:19.826Z,101126.28
2023-05-07T18:29:47.252Z,101139.66
2023-05-07T18:32:14.772Z,101159.22
2023-05-07T18:34:42.280Z,101164.56
2023-05-07T18:37:09.235Z,101172.56
2023-05-07T18:39:37.055Z,101181.44
2023-05-07T18:42:08.667Z,101180.56
2023-05-07T18:44:38.666Z,101187.66
2023-05-07T18:47:06.568Z,101192.09
2023-05-07T18:49:37.220Z,101201.88
2023-05-07T18:52:05.047Z,101205.44
2023-05-07T18:54:32.620Z,101202.78
2023-05-07T18:57:00.091Z,101203.66
2023-05-07T18:59:27.428Z,101209.81
2023-05-07T19:01:54.632Z,101214.25
2023-05-07T19:04:22.242Z,101217.81
2023-05-07T19:06:49.678Z,101236.47
2023-05-07T19:09:17.191Z,101244.47
2023-05-07T19:11:44.509Z,101248.03
2023-05-07T19:14:11.849Z,101260.50
2023-05-07T19:16:39.407Z,101266.69
2023-05-07T19:19:07.146Z,101270.22
2023-05-07T19:21:34.746Z,101269.34
2023-05-07T19:24:02.168Z,101270.25
2023-05-07T19:26:29.686Z,101279.22
2023-05-07T19:29:15.631Z,101273.88
2023-05-07T19:31:44.881Z,101264.00
2023-05-07T19:34:14.043Z,101275.56
2023-05-07T19:36:41.708Z,101274.66
2023-05-07T19:39:09.109Z,101281.78
2023-05-07T19:41:36.317Z,101294.31
2023-05-07T19:44:04.053Z,101293.44
2023-05-07T19:46:31.663Z,101301.44
2023-05-07T19:48:59.023Z,101304.97
2023-05-07T19:51:26.519Z,101313.88
2023-05-07T19:53:53.873Z,101321.88
2023-05-07T19:56:22.402Z,101316.50
2023-05-07T19:58:50.086Z,101322.75
2023-05-07T20:01:17.552Z,101325.38
2023-05-07T20:03:45.268Z,101337.00
2023-05-07T20:06:13.036Z,101335.22
2023-05-07T20:08:40.526Z,101342.34
2023-05-07T20:11:09.904Z,101347.66
2023-05-07T20:13:37.320Z,101353.88
2023-05-07T20:16:05.013Z,101363.66
2023-05-07T20:18:32.735Z,101359.13
2023-05-07T20:21:00.182Z,101363.56
2023-05-07T20:23:27.673Z,101368.00
2023-05-07T20:25:54.933Z,101373.34
2023-05-07T20:28:22.385Z,101378.66
2023-05-07T20:30:49.931Z,101376.88
2023-05-07T20:33:17.633Z,101371.53
2023-05-07T20:35:45.277Z,101380.41
2023-05-07T20:38:12.283Z,101376.84
2023-05-07T20:40:40.689Z,101393.72
2023-05-07T20:43:08.396Z,101393.75
2023-05-07T20:45:36.160Z,101383.06
2023-05-07T20:48:03.412Z,101382.16
2023-05-07T20:50:31.939Z,101383.03
2023-05-07T20:52:59.359Z,101385.72
2023-05-07T20:55:26.546Z,101382.16
2023-05-07T20:57:53.859Z,101383.03
2023-05-07T21:00:21.337Z,101385.72
2023-05-07T21:02:48.851Z,101385.69
2023-05-07T21:05:15.900Z,101382.13
2023-05-07T21:07:42.865Z,101393.69
2023-05-07T21:10:10.823Z,101397.22
2023-05-07T21:12:39.801Z,101404.34
2023-05-07T21:15:07.929Z,101409.69
2023-05-07T21:17:35.588Z,101415.94
2023-05-07T21:20:04.049Z,101415.91
2023-05-07T21:22:31.270Z,101420.34
2023-05-07T21:24:58.605Z,101422.13
2023-05-07T21:27:25.898Z,101431.00
2023-05-07T21:29:53.251Z,101428.31
2023-05-07T21:32:20.631Z,101431.88
2023-05-07T21:34:47.675Z,101436.31
2023-05-07T21:37:15.753Z,101441.63
2023-05-07T21:39:43.174Z,101441.63
2023-05-07T21:42:10.226Z,101440.72
2023-05-07T21:44:37.330Z,101444.25
2023-05-07T21:47:04.769Z,101437.19
2023-05-07T21:49:32.235Z,101445.19
2023-05-07T21:51:59.609Z,101440.72
2023-05-07T21:54:26.977Z,101449.63
2023-05-07T21:56:54.322Z,101446.97
2023-05-07T21:59:21.305Z,101448.75
2023-05-07T22:01:48.815Z,101453.22
2023-05-07T22:04:16.241Z,101450.53
2023-05-07T22:06:43.598Z,101452.31
2023-05-07T22:09:11.250Z,101447.84
2023-05-07T22:11:38.727Z,101454.94
2023-05-07T22:14:06.364Z,101464.72
2023-05-07T22:16:33.928Z,101462.97
2023-05-07T22:19:01.378Z,101462.06
2023-05-07T22:21:28.511Z,101465.63
2023-05-07T22:23:55.594Z,101463.81
2023-05-07T22:26:23.196Z,101464.69
2023-05-07T22:28:50.659Z,101461.09
2023-05-07T22:31:18.047Z,101461.13
2023-05-07T22:33:45.537Z,101466.50
2023-05-07T22:36:12.916Z,101467.34
2023-05-07T22:38:40.398Z,101469.97
2023-05-07T22:41:07.758Z,101477.09
2023-05-07T22:43:35.280Z,101475.31
2023-05-07T22:46:03.041Z,101474.44
2023-05-07T22:48:30.892Z,101483.31
2023-05-07T22:50:58.412Z,101486.84
2023-05-07T22:53:25.761Z,101494.88
2023-05-07T22:55:53.380Z,101498.41
2023-05-07T22:58:20.869Z,101497.53
2023-05-07T23:00:48.384Z,101492.19
2023-05-07T23:03:15.998Z,101494.88
2023-05-07T23:05:43.386Z,101493.06
2023-05-07T23:08:11.538Z,101493.09
2023-05-07T23:10:38.906Z,101494.84
2023-05-07T23:13:06.093Z,101501.94
2023-05-07T23:15:33.573Z,101493.06
2023-05-07T23:18:00.957Z,101496.63
2023-05-07T23:20:28.028Z,101498.41
2023-05-07T23:22:55.012Z,101496.63
2023-05-07T23:25:22.493Z,101494.88
2023-05-07T23:27:50.061Z,101500.22
2023-05-07T23:30:17.624Z,101493.06
2023-05-07T23:32:45.046Z,101485.03
2023-05-07T23:35:12.230Z,101498.34
2023-05-07T23:37:39.590Z,101489.50
2023-05-07T23:40:07.652Z,101494.81
2023-05-07T23:42:35.514Z,101494.84
2023-05-07T23:45:03.063Z,101488.63
2023-05-07T23:47:30.682Z,101493.03
2023-05-07T23:49:57.647Z,101500.19
2023-05-07T23:52:24.990Z,101506.38
2023-05-07T23:54:52.563Z,101501.97
2023-05-07T23:57:19.588Z,101495.69
2023-05-07T23:59:46.983Z,101502.84
